Time;durP1;ratioP1;P1;durP2;ratioP2;P2;SDS_P1;SDS_P2;PMS_P1;PMS_P2;Temp;Humidity;BMP_temperature;BMP_pressure;BME280_temperature;BME280_humidity;BME280_pressure;Samples;Min_cycle;Max_cycle;Signal;HPM_P1;HPM_P2
2023/02/03 00:00:27;;;;;;;69.32;35.97;;;;;;;2.50;100.00;99753.47;5115811;28;20142;-93
2023/02/03 00:02:53;;;;;;;70.57;37.20;;;;;;;2.49;100.00;99761.31;5129374;27;20045;-92
2023/02/03 00:05:19;;;;;;;66.60;35.80;;;;;;;2.33;100.00;99749.59;5126355;27;20482;-91
2023/02/03 00:07:47;;;;;;;66.00;35.75;;;;;;;2.34;100.00;99760.13;5126639;27;20031;-90
2023/02/03 00:10:13;;;;;;;66.15;35.60;;;;;;;2.21;100.00;99761.59;5117862;27;20496;-93
2023/02/03 00:12:39;;;;;;;60.42;32.33;;;;;;;2.20;100.00;99759.81;5120131;27;20057;-92
2023/02/03 00:15:06;;;;;;;58.08;32.13;;;;;;;2.22;100.00;99784.34;5131953;27;20049;-93
2023/02/03 00:17:32;;;;;;;62.15;31.92;;;;;;;2.07;100.00;99747.28;5121860;27;20048;-93
2023/02/03 00:19:58;;;;;;;58.20;32.67;;;;;;;2.24;100.00;99777.41;5125699;27;20027;-93
2023/02/03 00:22:24;;;;;;;63.22;33.33;;;;;;;2.19;100.00;99763.31;5126863;27;20132;-91
2023/02/03 00:24:51;;;;;;;59.53;33.08;;;;;;;2.25;100.00;99775.66;5122030;27;20668;-93
2023/02/03 00:27:17;;;;;;;60.75;34.53;;;;;;;2.17;100.00;99741.38;5127019;27;20143;-92
2023/02/03 00:29:43;;;;;;;64.00;34.75;;;;;;;2.33;100.00;99754.84;5128352;27;20074;-93
2023/02/03 00:32:08;;;;;;;66.35;34.30;;;;;;;2.30;100.00;99745.16;5125968;27;20043;-92
2023/02/03 00:34:34;;;;;;;63.88;33.58;;;;;;;2.24;100.00;99745.03;5133996;27;20041;-91
2023/02/03 00:37:00;;;;;;;65.20;34.03;;;;;;;2.38;100.00;99751.44;5130028;27;20045;-92
2023/02/03 00:39:26;;;;;;;63.10;34.67;;;;;;;2.33;100.00;99754.84;5126424;27;20519;-91
2023/02/03 00:41:53;;;;;;;67.03;34.13;;;;;;;2.32;100.00;99767.09;5120822;27;20049;-93
2023/02/03 00:44:19;;;;;;;60.83;33.17;;;;;;;2.13;100.00;99744.78;5119005;27;20093;-92
2023/02/03 00:46:45;;;;;;;62.78;34.35;;;;;;;2.14;100.00;99759.66;5123609;27;20051;-94
2023/02/03 00:49:11;;;;;;;58.25;34.38;;;;;;;2.17;100.00;99764.09;5128607;27;20039;-93
2023/02/03 00:51:37;;;;;;;64.05;34.97;;;;;;;2.14;100.00;99748.28;5124967;27;20043;-91
2023/02/03 00:54:02;;;;;;;65.70;34.22;;;;;;;2.10;100.00;99763.06;5127903;27;20039;-91
2023/02/03 00:56:28;;;;;;;63.42;33.78;;;;;;;2.13;100.00;99768.41;5129616;27;20035;-93
2023/02/03 00:58:56;;;;;;;64.15;33.67;;;;;;;2.09;100.00;99782.31;5119668;27;20039;-93
2023/02/03 01:01:21;;;;;;;73.07;35.45;;;;;;;2.09;100.00;99782.31;5127456;27;20043;-93
2023/02/03 01:03:47;;;;;;;64.60;35.20;;;;;;;2.08;100.00;99787.50;5120834;27;20515;-93
2023/02/03 01:06:15;;;;;;;62.30;34.42;;;;;;;2.05;100.00;99781.34;5123832;27;20130;-93
2023/02/03 01:08:41;;;;;;;69.65;35.05;;;;;;;1.95;100.00;99782.00;5131175;27;20459;-91
2023/02/03 01:11:08;;;;;;;68.57;35.03;;;;;;;1.91;100.00;99782.75;5124310;27;20062;-93
2023/02/03 01:13:35;;;;;;;63.58;34.22;;;;;;;1.82;100.00;99782.53;5122571;27;20043;-93
2023/02/03 01:16:05;;;;;;;67.50;37.70;;;;;;;1.76;100.00;99783.28;5128810;27;20459;-92
2023/02/03 01:18:31;;;;;;;78.45;37.72;;;;;;;1.75;100.00;99767.50;5123573;27;20058;-91
2023/02/03 01:20:57;;;;;;;67.20;37.63;;;;;;;1.90;100.00;99791.47;5127614;27;20559;-93
2023/02/03 01:23:23;;;;;;;78.47;39.13;;;;;;;1.92;100.00;99783.66;5119384;27;20729;-94
2023/02/03 01:25:49;;;;;;;80.18;36.75;;;;;;;1.99;100.00;99759.31;5125415;27;20054;-93
2023/02/03 01:28:15;;;;;;;71.53;37.60;;;;;;;2.19;100.00;99773.81;5124152;27;20046;-91
2023/02/03 01:30:40;;;;;;;73.78;36.58;;;;;;;2.15;100.00;99769.34;5124639;27;20480;-93
2023/02/03 01:33:08;;;;;;;66.28;33.72;;;;;;;2.13;100.00;99778.91;5128357;27;20126;-92
2023/02/03 01:35:34;;;;;;;65.78;34.00;;;;;;;2.08;100.00;99772.66;5129847;27;20576;-92
2023/02/03 01:38:00;;;;;;;69.30;36.10;;;;;;;2.03;100.00;99771.66;5134117;27;21580;-92
2023/02/03 01:40:26;;;;;;;65.30;35.22;;;;;;;2.05;100.00;99797.06;5119654;27;20035;-91
2023/02/03 01:42:52;;;;;;;68.97;35.53;;;;;;;1.83;100.00;99750.22;5124109;27;20039;-93
2023/02/03 01:45:18;;;;;;;64.93;34.35;;;;;;;1.89;100.00;99758.25;5120748;27;20108;-90
2023/02/03 01:47:49;;;;;;;64.28;30.60;;;;;;;1.74;100.00;99756.13;5127892;27;20035;-91
2023/02/03 01:50:19;;;;;;;56.60;29.60;;;;;;;1.64;100.00;99748.88;5129787;27;20122;-94
2023/02/03 01:52:50;;;;;;;49.13;26.05;;;;;;;1.69;100.00;99765.59;5122026;27;20489;-89
2023/02/03 01:55:21;;;;;;;48.45;24.33;;;;;;;1.68;100.00;99755.09;5128248;27;20037;-93
2023/02/03 01:57:50;;;;;;;46.28;23.60;;;;;;;1.61;100.00;99747.06;5124730;27;20035;-91
2023/02/03 02:00:17;;;;;;;48.05;27.20;;;;;;;1.61;100.00;99756.69;5117135;27;20072;-93
2023/02/03 02:02:45;;;;;;;47.40;25.55;;;;;;;1.67;100.00;99777.81;5121944;27;20043;-92
2023/02/03 02:05:17;;;;;;;47.45;25.35;;;;;;;1.62;100.00;99780.28;5119486;27;20057;-95
2023/02/03 02:07:46;;;;;;;43.25;22.83;;;;;;;1.44;100.00;99751.91;5125198;27;20058;-91
2023/02/03 02:10:12;;;;;;;37.42;18.60;;;;;;;1.60;100.00;99779.38;5123689;27;20066;-94
2023/02/03 02:12:38;;;;;;;40.88;17.00;;;;;;;1.53;100.00;99752.97;5125031;27;20050;-93
2023/02/03 02:15:05;;;;;;;33.85;18.85;;;;;;;1.55;100.00;99764.38;5120869;27;20035;-92
2023/02/03 02:17:46;;;;;;;34.72;19.08;;;;;;;1.58;100.00;99785.44;5119544;27;20043;-93
2023/02/03 02:20:32;;;;;;;33.63;17.73;;;;;;;1.50;100.00;99769.53;5127839;27;20051;-93
2023/02/03 02:23:29;;;;;;;40.45;19.33;;;;;;;1.61;100.00;99783.78;5123262;27;20035;-93
2023/02/03 02:26:15;;;;;;;37.03;19.88;;;;;;;1.36;100.00;99755.16;5128051;27;20054;-91
2023/02/03 02:29:02;;;;;;;46.28;24.13;;;;;;;1.42;100.00;99779.78;5115994;27;20047;-94
2023/02/03 02:31:51;;;;;;;40.95;21.65;;;;;;;1.34;100.00;99772.59;5119284;27;20039;-92
2023/02/03 02:34:24;;;;;;;39.85;22.23;;;;;;;1.16;100.00;99752.03;5124323;27;20035;-91
2023/02/03 02:36:57;;;;;;;39.35;21.48;;;;;;;1.23;100.00;99769.69;5120736;27;20039;-91
2023/02/03 02:39:30;;;;;;;43.88;21.02;;;;;;;1.28;100.00;99777.66;5126816;27;20043;-92
2023/02/03 02:42:03;;;;;;;40.58;22.13;;;;;;;1.28;100.00;99761.94;5125231;27;20121;-92
2023/02/03 02:44:32;;;;;;;44.67;22.23;;;;;;;1.25;100.00;99760.13;5129487;27;20031;-92
2023/02/03 02:47:05;;;;;;;38.38;20.83;;;;;;;1.32;100.00;99769.03;5124790;27;20043;-92
2023/02/03 02:49:37;;;;;;;36.70;21.10;;;;;;;1.17;100.00;99753.78;5118747;27;20411;-91
2023/02/03 02:52:06;;;;;;;43.45;22.63;;;;;;;1.20;100.00;99774.84;5122293;27;20031;-91
2023/02/03 02:54:36;;;;;;;36.85;19.10;;;;;;;1.13;100.00;99767.66;5123634;27;20038;-92
2023/02/03 02:57:05;;;;;;;39.35;18.73;;;;;;;1.22;100.00;99795.00;5120797;27;20043;-94
2023/02/03 02:59:31;;;;;;;37.58;18.88;;;;;;;1.20;100.00;99795.81;5123165;27;20047;-93
2023/02/03 03:01:57;;;;;;;33.75;18.75;;;;;;;1.12;100.00;99784.22;5127211;27;20066;-93
2023/02/03 03:04:27;;;;;;;41.70;20.42;;;;;;;1.19;100.00;99808.03;5125090;27;20054;-92
2023/02/03 03:06:57;;;;;;;35.25;19.30;;;;;;;1.11;100.00;99798.19;5121985;27;20034;-94
2023/02/03 03:09:26;;;;;;;40.22;21.33;;;;;;;1.06;100.00;99791.91;5127732;27;20130;-91
2023/02/03 03:11:57;;;;;;;39.10;18.95;;;;;;;1.14;100.00;99808.75;5124921;27;20495;-92
2023/02/03 03:14:27;;;;;;;35.08;17.70;;;;;;;1.17;100.00;99799.25;5120367;27;20034;-92
2023/02/03 03:16:59;;;;;;;32.08;16.15;;;;;;;1.08;100.00;99790.22;5117715;28;20049;-92
2023/02/03 03:19:31;;;;;;;35.85;16.90;;;;;;;1.01;100.00;99784.81;5116943;28;20125;-93
2023/02/03 03:22:01;;;;;;;36.17;16.27;;;;;;;1.13;100.00;99801.72;5116709;28;20035;-92
2023/02/03 03:24:31;;;;;;;34.22;16.65;;;;;;;1.09;100.00;99787.66;5116803;28;20043;-92
2023/02/03 03:27:01;;;;;;;34.25;17.20;;;;;;;1.05;100.00;99779.69;5112611;28;20042;-95
2023/02/03 03:29:34;;;;;;;37.92;17.38;;;;;;;1.28;100.00;99812.63;5116452;28;20101;-93
2023/02/03 03:32:00;;;;;;;32.97;17.38;;;;;;;1.28;100.00;99802.16;5132516;28;20122;-91
2023/02/03 03:34:29;;;;;;;33.75;18.98;;;;;;;1.37;100.00;99809.38;5116483;28;20827;-93
2023/02/03 03:37:00;;;;;;;34.03;18.33;;;;;;;1.26;100.00;99798.59;5111452;28;20063;-92
2023/02/03 03:39:34;;;;;;;31.55;17.35;;;;;;;1.25;100.00;99804.66;5120596;27;20475;-92
2023/02/03 03:42:04;;;;;;;37.47;19.77;;;;;;;1.20;100.00;99808.91;5120970;27;20495;-93
2023/02/03 03:44:35;;;;;;;37.20;20.05;;;;;;;1.06;100.00;99805.00;5120637;27;20043;-94
2023/02/03 03:47:10;;;;;;;43.95;22.08;;;;;;;0.91;100.00;99793.28;5120611;27;20043;-93
2023/02/03 03:49:40;;;;;;;38.65;21.73;;;;;;;0.69;100.00;99780.41;5120777;27;20043;-95
2023/02/03 03:52:09;;;;;;;37.45;20.60;;;;;;;0.81;100.00;99801.72;5120239;27;20042;-91
2023/02/03 03:54:36;;;;;;;37.40;20.30;;;;;;;0.67;100.00;99784.72;5117225;27;20039;-91
2023/02/03 03:57:08;;;;;;;33.78;18.65;;;;;;;0.79;100.00;99816.50;5120117;27;20105;-93
2023/02/03 03:59:38;;;;;;;37.20;19.92;;;;;;;0.70;100.00;99811.00;5118749;27;20122;-92
2023/02/03 04:02:04;;;;;;;33.83;18.80;;;;;;;0.63;100.00;99815.16;5119745;27;20039;-93
2023/02/03 04:04:32;;;;;;;38.38;20.40;;;;;;;0.55;100.00;99804.47;5120307;27;20138;-93
2023/02/03 04:07:00;;;;;;;36.78;17.67;;;;;;;0.57;100.00;99805.41;5119299;27;20035;-92
2023/02/03 04:09:25;;;;;;;32.70;17.27;;;;;;;0.62;100.00;99808.16;5120306;27;20130;-90
2023/02/03 04:14:51;;;;;;;34.88;18.00;;;;;;;0.91;100.00;99829.94;5107758;27;20378;-94
2023/02/03 04:17:18;;;;;;;32.92;16.98;;;;;;;0.85;100.00;99813.16;5098498;28;20048;-94
2023/02/03 04:19:45;;;;;;;36.13;17.52;;;;;;;0.79;100.00;99804.28;5093342;28;20041;-93
2023/02/03 04:22:11;;;;;;;36.35;17.88;;;;;;;0.77;100.00;99805.97;5090864;28;20131;-94
2023/02/03 04:24:38;;;;;;;34.47;17.95;;;;;;;0.66;100.00;99790.81;5093177;28;20079;-92
2023/02/03 04:27:04;;;;;;;37.50;21.08;;;;;;;0.69;100.00;99798.75;5092280;28;20040;-93
2023/02/03 04:29:30;;;;;;;34.88;19.95;;;;;;;0.59;100.00;99803.72;5092136;28;20044;-93
2023/02/03 04:31:57;;;;;;;35.85;16.98;;;;;;;0.62;100.00;99797.69;5090206;28;20451;-92
2023/02/03 04:34:23;;;;;;;33.50;17.75;;;;;;;0.67;100.00;99787.34;5092309;28;20132;-92
2023/02/03 04:36:49;;;;;;;36.75;17.98;;;;;;;0.58;100.00;99798.41;5093945;28;20131;-94
2023/02/03 04:39:15;;;;;;;32.63;18.30;;;;;;;0.57;100.00;99808.00;5092213;28;20044;-94
2023/02/03 04:41:40;;;;;;;44.20;21.08;;;;;;;0.54;100.00;99796.56;5091806;28;20154;-93
2023/02/03 04:44:06;;;;;;;41.00;21.52;;;;;;;0.65;100.00;99813.50;5093403;28;20036;-93
2023/02/03 04:46:32;;;;;;;38.60;19.77;;;;;;;0.59;100.00;99814.19;5089189;28;20144;-94
2023/02/03 04:49:00;;;;;;;35.30;18.83;;;;;;;0.46;100.00;99790.22;5096244;28;20548;-92
2023/02/03 04:51:25;;;;;;;35.70;18.65;;;;;;;0.51;100.00;99813.06;5094046;28;20044;-93
2023/02/03 04:53:51;;;;;;;34.35;17.10;;;;;;;0.48;100.00;99807.75;5094210;28;20097;-94
2023/02/03 04:56:17;;;;;;;33.15;16.00;;;;;;;0.55;100.00;99817.53;5093204;28;20046;-94
2023/02/03 04:58:43;;;;;;;33.33;17.30;;;;;;;0.69;100.00;99824.91;5090100;28;20040;-93
2023/02/03 05:01:09;;;;;;;38.15;18.80;;;;;;;0.75;100.00;99825.97;5090662;28;20037;-94
2023/02/03 05:03:35;;;;;;;37.80;18.63;;;;;;;0.65;100.00;99816.09;5092321;28;20048;-94
2023/02/03 05:06:04;;;;;;;33.28;17.90;;;;;;;0.71;100.00;99841.56;5092707;28;20041;-93
2023/02/03 05:08:30;;;;;;;39.33;18.58;;;;;;;0.63;100.00;99827.34;5092079;28;20048;-93
2023/02/03 05:10:56;;;;;;;32.67;17.65;;;;;;;0.67;100.00;99837.06;5094626;28;20048;-92
2023/02/03 05:13:22;;;;;;;34.40;17.50;;;;;;;0.76;100.00;99861.81;5097805;28;20040;-93
2023/02/03 05:15:47;;;;;;;31.35;17.65;;;;;;;0.56;100.00;99847.22;5088719;28;20040;-93
2023/02/03 05:18:13;;;;;;;37.08;22.15;;;;;;;0.45;100.00;99832.91;5093019;28;20037;-94
2023/02/03 05:20:39;;;;;;;35.22;19.52;;;;;;;0.38;100.00;99824.00;5091228;28;20075;-93
2023/02/03 05:23:06;;;;;;;37.00;20.90;;;;;;;0.37;100.00;99857.13;5090822;28;20490;-93
2023/02/03 05:25:32;;;;;;;38.33;19.92;;;;;;;0.33;100.00;99868.34;5091944;28;20068;-94
2023/02/03 05:27:58;;;;;;;38.13;20.05;;;;;;;0.24;100.00;99860.22;5083325;28;20051;-93
2023/02/03 05:30:24;;;;;;;32.67;18.48;;;;;;;0.17;100.00;99848.66;5074313;28;20036;-92
2023/02/03 05:32:50;;;;;;;37.35;19.27;;;;;;;0.09;100.00;99829.22;5077252;28;20051;-92
2023/02/03 05:35:16;;;;;;;38.78;21.58;;;;;;;0.19;100.00;99852.19;5076128;28;20052;-93
2023/02/03 05:37:43;;;;;;;46.00;23.55;;;;;;;0.08;100.00;99827.44;5077120;28;20041;-93
2023/02/03 05:43:11;;;;;;;49.97;25.38;;;;;;;0.33;100.00;99864.84;5104042;27;20372;-94
2023/02/03 05:45:37;;;;;;;49.25;25.25;;;;;;;0.37;100.00;99866.72;5069906;28;20437;-94
2023/02/03 05:48:03;;;;;;;58.03;27.35;;;;;;;0.38;100.00;99864.13;5070546;28;20047;-94
2023/02/03 05:50:32;;;;;;;49.65;26.25;;;;;;;0.33;100.00;99863.09;5070518;28;20041;-93
2023/02/03 05:52:58;;;;;;;56.00;27.48;;;;;;;0.24;100.00;99849.75;5070303;28;20052;-94
2023/02/03 05:55:24;;;;;;;53.95;25.60;;;;;;;0.32;100.00;99865.66;5070104;28;20049;-94
2023/02/03 05:57:50;;;;;;;41.58;24.42;;;;;;;0.14;100.00;99843.31;5070404;28;20095;-92
2023/02/03 06:00:20;;;;;;;45.38;24.52;;;;;;;0.36;100.00;99864.94;5069838;28;20486;-92
2023/02/03 06:02:50;;;;;;;47.17;24.73;;;;;;;0.30;100.00;99860.38;5070450;28;20041;-92
2023/02/03 06:05:16;;;;;;;41.45;24.05;;;;;;;0.15;100.00;99834.66;5070758;28;20486;-94
2023/02/03 06:07:42;;;;;;;39.97;22.98;;;;;;;0.26;100.00;99855.00;5071027;28;20041;-93
2023/02/03 06:10:09;;;;;;;43.80;22.98;;;;;;;0.30;100.00;99867.34;5070304;28;20040;-94
2023/02/03 06:12:36;;;;;;;37.50;20.38;;;;;;;0.19;100.00;99851.31;5070461;28;20179;-93
2023/02/03 06:15:02;;;;;;;37.22;19.50;;;;;;;0.22;100.00;99848.81;5067953;28;20037;-92
2023/02/03 06:17:29;;;;;;;35.85;19.75;;;;;;;0.22;100.00;99853.13;5070275;28;20054;-93
2023/02/03 06:19:55;;;;;;;31.90;19.08;;;;;;;0.15;100.00;99846.81;5070539;28;20049;-93
2023/02/03 06:22:21;;;;;;;33.60;19.70;;;;;;;0.09;100.00;99842.28;5069576;28;20045;-93
2023/02/03 06:24:47;;;;;;;32.78;19.95;;;;;;;0.18;100.00;99867.84;5069966;28;20498;-93
2023/02/03 06:27:13;;;;;;;38.05;20.73;;;;;;;0.17;100.00;99847.75;5070571;28;20051;-94
2023/02/03 06:29:39;;;;;;;39.42;20.45;;;;;;;0.17;100.00;99827.75;5070542;28;20136;-94
2023/02/03 06:32:05;;;;;;;43.50;21.58;;;;;;;0.17;100.00;99832.97;5071529;28;20076;-94
2023/02/03 06:34:33;;;;;;;39.45;20.83;;;;;;;0.40;100.00;99853.72;5071046;28;20045;-94
2023/02/03 06:36:59;;;;;;;39.47;20.50;;;;;;;0.51;100.00;99849.69;5072266;28;20135;-94
2023/02/03 06:39:25;;;;;;;39.65;21.58;;;;;;;0.54;100.00;99855.03;5072635;28;20059;-93
2023/02/03 06:41:50;;;;;;;41.08;21.88;;;;;;;0.79;100.00;99876.72;5072045;28;20166;-94
2023/02/03 06:44:16;;;;;;;43.03;22.48;;;;;;;0.74;100.00;99853.03;5071945;28;20058;-94
2023/02/03 06:46:42;;;;;;;52.97;24.98;;;;;;;0.80;100.00;99855.81;5071457;28;20052;-94
2023/02/03 06:49:08;;;;;;;70.63;29.80;;;;;;;0.88;100.00;99845.56;5072194;28;20045;-94
2023/02/03 06:51:36;;;;;;;60.85;28.70;;;;;;;1.02;100.00;99869.53;5071860;28;20067;-93
2023/02/03 06:54:03;;;;;;;71.03;29.30;;;;;;;1.01;100.00;99858.16;5060167;28;20045;-94
2023/02/03 06:56:30;;;;;;;68.80;27.50;;;;;;;1.09;100.00;99861.00;5057914;28;20561;-93
2023/02/03 06:58:57;;;;;;;65.72;29.15;;;;;;;1.04;100.00;99849.50;5064184;28;20060;-94
2023/02/03 07:01:24;;;;;;;50.30;23.95;;;;;;;0.89;100.00;99849.06;5058227;28;20136;-94
2023/02/03 07:03:50;;;;;;;37.03;18.70;;;;;;;1.11;100.00;99869.81;5058199;28;20045;-93
2023/02/03 07:06:16;;;;;;;34.03;18.27;;;;;;;1.01;100.00;99855.53;5057386;28;20048;-93
2023/02/03 07:08:44;;;;;;;46.35;21.98;;;;;;;0.97;100.00;99853.66;5057856;28;20045;-93
2023/02/03 07:11:10;;;;;;;59.38;28.58;;;;;;;1.18;100.00;99871.75;5057773;28;20446;-95
2023/02/03 07:13:35;;;;;;;94.28;38.45;;;;;;;1.20;100.00;99863.94;5058656;28;20045;-94
2023/02/03 07:16:01;;;;;;;84.40;36.60;;;;;;;1.25;100.00;99840.47;5059029;28;20074;-94
2023/02/03 07:18:29;;;;;;;70.18;34.08;;;;;;;1.33;100.00;99836.34;5059224;28;20563;-94
2023/02/03 07:20:55;;;;;;;63.92;31.85;;;;;;;1.55;100.00;99866.63;5058554;28;20045;-94
2023/02/03 07:23:22;;;;;;;67.40;31.70;;;;;;;1.47;100.00;99842.81;5059415;28;20041;-93
2023/02/03 07:25:49;;;;;;;70.18;34.90;;;;;;;1.66;100.00;99875.66;5059729;28;20405;-93
2023/02/03 07:28:15;;;;;;;60.00;27.73;;;;;;;1.63;100.00;99855.50;5060125;28;20076;-95
2023/02/03 07:30:41;;;;;;;51.75;24.95;;;;;;;1.78;100.00;99881.22;5059779;28;20398;-93
2023/02/03 07:33:06;;;;;;;47.85;24.52;;;;;;;1.76;100.00;99876.81;5059249;28;20049;-95
2023/02/03 07:35:33;;;;;;;52.38;22.67;;;;;;;1.76;100.00;99879.44;5058995;28;20091;-94
2023/02/03 07:37:59;;;;;;;43.80;23.60;;;;;;;1.76;100.00;99888.16;5058559;28;20068;-94
2023/02/03 07:40:25;;;;;;;45.45;24.08;;;;;;;1.86;100.00;99894.53;5057718;28;20495;-93
2023/02/03 07:42:52;;;;;;;45.78;23.30;;;;;;;1.90;100.00;99900.75;5057283;28;20044;-94
2023/02/03 07:45:18;;;;;;;51.95;25.30;;;;;;;1.96;100.00;99893.03;5057792;28;20490;-94
2023/02/03 07:47:44;;;;;;;46.35;22.95;;;;;;;2.22;100.00;99914.69;5056977;28;20095;-94
2023/02/03 07:50:11;;;;;;;53.85;23.85;;;;;;;2.24;100.00;99894.63;5057231;28;20052;-94
2023/02/03 07:52:37;;;;;;;48.45;21.63;;;;;;;2.36;100.00;99902.78;5057972;28;20048;-95
2023/02/03 07:55:03;;;;;;;40.63;18.65;;;;;;;2.32;100.00;99898.31;5059831;28;20041;-92
2023/02/03 07:57:29;;;;;;;33.53;16.92;;;;;;;2.30;100.00;99891.25;5058406;28;20071;-92
2023/02/03 07:59:56;;;;;;;32.17;16.45;;;;;;;2.31;100.00;99903.53;5057979;28;20060;-93
2023/02/03 08:02:22;;;;;;;33.25;17.00;;;;;;;2.49;100.00;99896.06;5057394;28;20069;-92
2023/02/03 08:04:48;;;;;;;37.95;18.20;;;;;;;2.51;100.00;99910.13;5055526;28;20088;-94
2023/02/03 08:07:14;;;;;;;30.48;16.08;;;;;;;2.50;100.00;99889.13;5055895;28;20052;-92
2023/02/03 08:09:40;;;;;;;40.40;18.55;;;;;;;2.51;100.00;99894.38;5055009;28;20047;-94
2023/02/03 08:12:06;;;;;;;37.92;19.27;;;;;;;2.65;100.00;99900.84;5057221;28;20045;-92
2023/02/03 08:14:32;;;;;;;43.03;19.67;;;;;;;2.81;100.00;99874.91;5058565;28;20124;-93
2023/02/03 08:16:59;;;;;;;45.28;23.02;;;;;;;3.07;100.00;99884.25;5056302;28;20049;-93
2023/02/03 08:19:25;;;;;;;45.60;22.02;;;;;;;3.16;100.00;99866.91;5057795;28;20498;-92
2023/02/03 08:21:51;;;;;;;43.90;21.98;;;;;;;3.40;100.00;99875.25;5057351;28;20041;-93
2023/02/03 08:24:17;;;;;;;46.08;24.13;;;;;;;3.52;100.00;99885.16;5055787;28;20037;-93
2023/02/03 08:26:43;;;;;;;42.28;21.83;;;;;;;3.46;100.00;99866.63;5058294;28;20095;-96
2023/02/03 08:29:10;;;;;;;41.70;20.83;;;;;;;3.62;100.00;99887.09;5058413;28;20429;-94
2023/02/03 08:31:36;;;;;;;36.58;20.08;;;;;;;3.67;100.00;99881.91;5058247;28;20036;-93
2023/02/03 08:34:04;;;;;;;37.05;20.00;;;;;;;3.76;100.00;99871.56;5058648;28;20525;-92
2023/02/03 08:36:30;;;;;;;44.75;23.38;;;;;;;3.90;100.00;99863.91;5057875;28;20052;-94
2023/02/03 08:38:56;;;;;;;51.92;26.23;;;;;;;4.00;100.00;99875.47;5058052;28;20502;-93
2023/02/03 08:41:22;;;;;;;49.15;25.25;;;;;;;4.13;100.00;99908.16;5057755;28;20073;-93
2023/02/03 08:43:48;;;;;;;42.85;22.08;;;;;;;4.00;100.00;99899.16;5058373;28;20077;-94
2023/02/03 08:46:14;;;;;;;43.28;21.52;;;;;;;4.25;100.00;99922.44;5058080;28;20044;-93
2023/02/03 08:48:40;;;;;;;43.85;20.45;;;;;;;4.48;100.00;99942.97;5058075;28;20051;-94
2023/02/03 08:51:11;;;;;;;35.22;18.70;;;;;;;4.37;100.00;99940.16;5057533;28;20056;-94
2023/02/03 08:53:37;;;;;;;34.90;18.42;;;;;;;4.32;100.00;99926.03;5056589;28;20437;-94
2023/02/03 08:56:04;;;;;;;33.17;17.83;;;;;;;4.37;100.00;99940.16;5057128;28;20170;-92
2023/02/03 08:58:30;;;;;;;31.45;16.48;;;;;;;4.31;100.00;99925.13;5056613;28;20051;-92
2023/02/03 09:01:05;;;;;;;34.65;17.40;;;;;;;4.55;100.00;99949.22;5056559;28;20574;-92
2023/02/03 09:03:31;;;;;;;33.05;17.23;;;;;;;4.50;100.00;99942.13;5057888;28;20037;-94
2023/02/03 09:05:57;;;;;;;35.47;17.55;;;;;;;4.60;100.00;99964.25;5057318;28;20083;-95
2023/02/03 09:08:24;;;;;;;32.00;17.75;;;;;;;4.65;100.00;99967.84;5057270;28;20049;-94
2023/02/03 09:10:50;;;;;;;39.38;22.17;;;;;;;4.73;100.00;99965.34;5055365;28;20053;-94
2023/02/03 09:13:16;;;;;;;46.60;25.75;;;;;;;4.83;100.00;99987.44;5055184;28;20449;-94
2023/02/03 09:15:42;;;;;;;54.40;28.38;;;;;;;4.83;100.00;99992.72;5055715;28;20098;-92
2023/02/03 09:18:08;;;;;;;67.60;32.40;;;;;;;4.99;100.00;100012.28;5055840;28;20328;-94
2023/02/03 09:20:34;;;;;;;59.30;30.40;;;;;;;5.06;100.00;99991.31;5055950;28;20045;-94
2023/02/03 09:22:59;;;;;;;61.97;27.55;;;;;;;5.33;100.00;100003.13;5055724;28;20487;-93
2023/02/03 09:25:27;;;;;;;52.95;26.13;;;;;;;5.39;100.00;100003.19;5057130;28;20387;-95
2023/02/03 09:27:53;;;;;;;56.83;26.75;;;;;;;5.63;100.00;100049.25;5056329;28;20068;-94
2023/02/03 09:30:19;;;;;;;48.53;25.38;;;;;;;5.53;100.00;100029.75;5055778;28;20068;-95
2023/02/03 09:32:47;;;;;;;62.17;28.95;;;;;;;5.53;100.00;100025.41;5056353;28;20045;-94
2023/02/03 09:35:14;;;;;;;69.65;35.10;;;;;;;5.66;100.00;100042.28;5056751;28;20139;-95
2023/02/03 09:37:39;;;;;;;53.25;26.95;;;;;;;5.44;99.83;100014.69;5056412;28;20053;-96
2023/02/03 09:40:08;;;;;;;49.33;27.67;;;;;;;5.49;100.00;100020.06;5055630;28;20048;-94
2023/02/03 09:42:58;;;;;;;54.85;29.63;;;;;;;5.45;99.86;99997.13;5056668;28;20048;-93
2023/02/03 09:45:29;;;;;;;62.53;29.90;;;;;;;5.41;99.55;99988.28;5056074;28;20509;-96
2023/02/03 09:48:01;;;;;;;59.35;31.60;;;;;;;5.28;98.58;99992.50;5055844;28;20041;-94
2023/02/03 09:50:33;;;;;;;62.45;32.55;;;;;;;5.22;97.81;100007.34;5057089;28;20410;-94
2023/02/03 09:53:07;;;;;;;66.70;30.90;;;;;;;5.13;98.69;100010.75;5055648;28;20041;-94
2023/02/03 09:55:37;;;;;;;68.55;31.95;;;;;;;5.04;99.96;100010.63;5056028;28;20044;-93
2023/02/03 09:58:11;;;;;;;62.22;31.30;;;;;;;5.20;100.00;100027.53;5055755;28;20049;-93
2023/02/03 10:00:41;;;;;;;57.60;29.90;;;;;;;5.09;98.83;100004.53;5055584;28;20083;-94
2023/02/03 10:03:17;;;;;;;54.13;28.65;;;;;;;5.20;98.87;100025.78;5055587;28;20044;-94
2023/02/03 10:06:06;;;;;;;70.60;33.30;;;;;;;5.31;99.41;100044.41;5055233;28;20048;-94
2023/02/03 10:08:47;;;;;;;59.55;32.20;;;;;;;5.33;99.13;100021.56;5055166;28;20068;-95
2023/02/03 10:11:24;;;;;;;64.70;33.58;;;;;;;5.46;99.10;100022.63;5055792;28;20048;-95
2023/02/03 10:14:07;;;;;;;61.22;34.85;;;;;;;5.57;98.14;100023.66;5054841;28;20044;-94
2023/02/03 10:16:47;;;;;;;49.97;29.15;;;;;;;5.55;97.19;99999.00;5055456;28;20414;-92
2023/02/03 10:19:19;;;;;;;57.65;28.02;;;;;;;5.48;95.60;100023.53;5055731;28;20048;-93
2023/02/03 10:21:50;;;;;;;48.00;29.25;;;;;;;5.34;98.04;100007.53;5055775;28;20135;-94
2023/02/03 10:24:20;;;;;;;56.33;30.38;;;;;;;5.18;99.57;99974.78;5055084;28;20045;-94
2023/02/03 10:26:47;;;;;;;52.53;30.23;;;;;;;5.38;99.85;99971.53;5055198;28;20080;-93
2023/02/03 10:29:20;;;;;;;59.22;35.58;;;;;;;5.47;97.10;99945.28;5057632;28;20045;-93
2023/02/03 10:31:46;;;;;;;57.08;33.38;;;;;;;5.78;98.27;99941.22;5058926;28;20052;-94
2023/02/03 10:34:14;;;;;;;55.65;31.08;;;;;;;6.07;97.78;99928.38;5059388;28;20140;-96
2023/02/03 10:36:53;;;;;;;47.35;26.90;;;;;;;5.88;94.93;99908.78;5058907;28;20061;-94
2023/02/03 10:39:28;;;;;;;45.78;27.73;;;;;;;5.92;95.96;99929.09;5059481;28;20045;-94
2023/02/03 10:41:55;;;;;;;49.85;29.15;;;;;;;6.13;92.81;99938.09;5058551;28;20061;-94
2023/02/03 10:44:28;;;;;;;49.72;29.75;;;;;;;6.03;93.75;99936.25;5058100;28;20132;-94
2023/02/03 10:46:54;;;;;;;58.72;32.30;;;;;;;6.17;95.48;99961.91;5059095;28;20059;-94
2023/02/03 10:49:21;;;;;;;55.65;30.88;;;;;;;6.24;96.17;99956.69;5052046;28;20040;-94
2023/02/03 10:51:50;;;;;;;63.83;33.20;;;;;;;6.37;96.36;99953.28;5058107;28;20040;-93
2023/02/03 10:54:28;;;;;;;65.05;32.60;;;;;;;6.60;95.57;99945.56;5057510;28;20049;-93
2023/02/03 10:56:56;;;;;;;71.30;35.53;;;;;;;6.75;96.12;99935.09;5057834;28;20041;-92
2023/02/03 10:59:29;;;;;;;59.93;31.20;;;;;;;6.95;95.63;99943.16;5057148;28;20060;-93
2023/02/03 11:01:56;;;;;;;47.05;26.48;;;;;;;7.01;96.43;99939.69;5059939;28;20052;-94
2023/02/03 11:04:25;;;;;;;48.50;27.52;;;;;;;7.18;94.44;99924.81;5061455;28;20107;-94
2023/02/03 11:06:53;;;;;;;;;;;;;;;7.39;93.81;99946.94;5061973;28;20112;-93
2023/02/03 11:09:27;;;;;;;49.17;26.55;;;;;;;7.26;93.88;99950.41;5060068;28;19970;-94
2023/02/03 11:12:05;;;;;;;53.65;27.40;;;;;;;7.08;97.69;99930.91;5059092;28;20045;-94
2023/02/03 11:14:38;;;;;;;46.67;25.50;;;;;;;7.27;97.10;99923.09;5060433;28;20045;-94
2023/02/03 11:17:09;;;;;;;45.40;24.50;;;;;;;7.32;96.12;99908.97;5062227;28;20045;-93
2023/02/03 11:19:37;;;;;;;46.45;24.60;;;;;;;7.37;95.11;99925.78;5060802;28;20037;-94
2023/02/03 11:22:05;;;;;;;58.80;25.38;;;;;;;7.16;95.88;99900.09;5060560;28;20044;-93
2023/02/03 11:24:35;;;;;;;51.88;26.33;;;;;;;7.35;95.83;99902.81;5059555;28;20045;-92
2023/02/03 11:27:05;;;;;;;47.45;27.42;;;;;;;7.63;95.74;99898.50;5056661;28;20037;-94
2023/02/03 11:29:33;;;;;;;50.63;25.83;;;;;;;7.89;93.89;99889.75;5056979;28;20045;-92